Latest Coastal Weather Observations for Cocos Island

IDW60701

Issued at 11:52 am WST Saturday 5 September 2015 (issued every 10 minutes, with the page automatically refreshed every 10 minutes)

About coastal observations | Map of coastal stations | Coastal observations for WA | Marine services | Other Formats
Station Details ID: 200284 Name: COCOS ISLAND AIRPORT Lat: -12.19 Lon: 96.83 Height: 3.0 m
Data from the previous 72 hours. | See also: Recent months at Cocos Island
Date/Time
WST
Temp

°C
Wind Pressure Rain
since 9am
mm
Weather Cloud Vis
km
Sea
Height
m
Swell
Dir
 
Speed
knots
Gust
knots
hPa Trend Height
m
Period
s
Dir
05/11:30am 27.3 E 12 14 1017.5 - 0.0 - Mostly clear 10 - - - -
05/11:00am 26.9 E 11 14 1017.8 - 0.0 Fine Partly cloudy 15 - - - -
05/10:30am 26.8 E 11 13 1017.9 - 0.0 - Mostly clear 10 - - - -
05/10:00am 27.0 E 10 13 1018.0 - 0.0 - Mostly clear 10 - - - -
05/09:30am 26.8 E 8 10 1017.6 - 0.0 - Mostly clear 10 - - - -
05/09:00am 26.5 E 7 9 1017.6 - 0.0 - Mostly clear 10 - - - -
05/08:30am 25.4 E 7 9 1017.5 - 0.0 - Mostly clear 10 - - - -
05/08:00am 24.9 ESE 6 9 1017.2 - 0.0 Fine Mostly clear 15 - - - -
05/07:30am 24.8 E 6 7 1016.8 - 0.0 - Mostly clear 10 - - - -
05/07:00am 24.8 E 6 8 1016.5 - 0.0 - Mostly clear 10 - - - -
05/06:30am 24.9 ESE 6 8 1016.3 - 0.0 - Partly cloudy - - - - -
05/06:00am 24.9 E 6 8 1016.2 - 0.0 - - - - - - -
05/05:30am 25.0 E 7 9 1016.1 - 0.0 - - - - - - -
05/05:00am 25.0 E 7 9 1016.0 - 0.0 - - - - - - -
05/04:30am 25.1 ESE 6 9 1016.0 - 0.0 - - - - - - -
05/04:00am 25.3 E 7 11 1016.1 - 0.0 - - - - - - -
05/03:30am 25.5 ESE 8 11 1016.3 - 0.0 - Partly cloudy - - - - -
05/03:00am 25.5 E 7 10 1016.5 - 0.0 - Partly cloudy - - - - -
05/02:30am 25.6 ESE 8 10 1016.8 - 0.0 - - 10 - - - -
05/02:00am 25.6 ESE 7 10 1017.1 - 0.0 - Mostly clear 10 - - - -
05/01:30am 25.8 E 9 12 1017.5 - 0.0 - - 10 - - - -
05/01:00am 25.7 E 7 9 1017.6 - 0.0 - - 10 - - - -
05/12:30am 25.6 ESE 8 10 1017.9 - 0.0 - - 10 - - - -
05/12:00am 25.8 E 8 10 1017.8 - 0.0 - - 10 - - - -
 
Date/Time
WST
Temp

°C
Wind Pressure Rain
since 9am
mm
Weather Cloud Vis
km
Sea
Height
m
Swell
Dir
 
Speed
knots
Gust
knots
hPa Trend Height
m
Period
s
Dir
04/11:30pm 25.8 E 9 12 1017.7 - 0.0 - - 10 - - - -
04/11:00pm 25.8 E 8 11 1017.6 - 0.0 - - 10 - - - -
04/10:30pm 26.0 E 10 14 1017.3 - 0.0 - - 10 - - - -
04/10:00pm 25.9 E 7 10 1017.4 - 0.0 - - 10 - - - -
04/09:30pm 26.0 ESE 8 11 1017.1 - 0.0 - - 10 - - - -
04/09:00pm 26.0 ESE 7 10 1017.0 - 0.0 - - - - - - -
04/08:30pm 26.0 ESE 8 10 1016.6 - 0.0 - - - - - - -
04/08:00pm 26.0 E 7 10 1016.3 - 0.0 - Mostly clear - - - - -
04/07:30pm 26.2 E 8 11 1016.0 - 0.0 - - - - - - -
04/07:00pm 26.4 ESE 9 11 1015.6 - 0.0 - Partly cloudy - - - - -
04/06:30pm 26.7 E 9 12 1015.3 - 0.0 - - - - - - -
04/06:00pm 27.0 E 10 13 1015.1 - 0.0 - Partly cloudy - - - - -
04/05:30pm 27.8 ENE 10 14 1014.8 - 0.0 - Partly cloudy - - - - -
04/05:00pm 27.9 ENE 10 13 1014.6 - 0.0 - Mostly clear - - - - -
04/04:30pm 27.5 E 11 13 1014.6 - 0.0 - Partly cloudy - - - - -
04/04:00pm 28.4 ENE 11 14 1014.6 - 0.0 - Partly cloudy - - - - -
04/03:30pm 28.0 E 11 14 1014.7 - 0.0 - Partly cloudy - - - - -
04/03:00pm 28.5 ENE 12 14 1014.9 - 0.0 - Partly cloudy - - - - -
04/02:30pm 28.3 ENE 12 14 1015.1 - 0.0 - Partly cloudy - - - - -
04/02:00pm 28.4 ENE 11 14 1015.4 - 0.0 - - - - - - -
04/01:30pm 28.3 ENE 12 14 1015.7 - 0.0 - Partly cloudy - - - - -
04/01:00pm 27.7 ENE 12 15 1015.8 - 0.0 - Partly cloudy - - - - -
04/12:30pm 27.7 E 12 14 1016.2 - 0.0 - Mostly clear 10 - - - -
04/12:00pm 27.5 E 12 15 1016.4 - 0.0 - Mostly clear 10 - - - -
04/11:30am 27.3 E 13 15 1016.3 - 0.0 - Mostly clear 10 - - - -
04/11:00am 26.8 E 13 16 1016.3 - 2.2 Fine Mostly clear 12 - - - -
04/10:30am 26.6 E 13 16 1016.2 - 2.2 - Mostly clear 10 - - - -
04/10:00am 26.6 E 12 15 1015.9 - 2.0 - Mostly clear 10 - - - -
04/09:30am 26.3 E 12 16 1015.5 - 2.0 - - 10 - - - -
04/09:00am 26.1 E 12 14 1015.3 - 2.0 - - 10 - - - -
04/08:30am 25.4 E 9 13 1015.0 - 2.0 - Partly cloudy 10 - - - -
04/08:00am 25.4 E 11 13 1014.8 - 2.0 - Mostly cloudy 10 - - - -
04/07:30am 25.3 E 11 14 1014.6 - 2.0 - Partly cloudy 10 - - - -
04/07:00am 25.2 E 12 14 1014.3 - 2.0 - - 10 - - - -
04/06:30am 25.2 ENE 12 13 1014.0 - 2.0 - Partly cloudy 10 - - - -
04/06:00am 25.0 ENE 11 13 1014.0 - 2.0 - Partly cloudy 10 - - - -
04/05:30am 25.1 ENE 10 11 1014.0 - 2.0 - - 10 - - - -
04/05:00am 25.2 ENE 9 11 1014.1 - 2.0 - Mostly clear 10 - - - -
04/04:30am 25.4 ENE 10 11 1014.3 - 2.0 - - 10 - - - -
04/04:00am 25.5 ENE 10 13 1014.4 - 2.0 - Partly cloudy 10 - - - -
04/03:30am 25.4 E 11 13 1014.6 - 2.0 - Partly cloudy 10 - - - -
04/03:00am 24.8 ENE 3 8 1015.1 - 2.0 - Partly cloudy - - - - -
04/02:30am 25.4 E 10 15 1015.4 - 0.0 - Partly cloudy - - - - -
04/02:00am 26.0 E 12 14 1015.6 - 0.0 - Partly cloudy - - - - -
04/01:30am 26.0 E 12 15 1015.9 - 0.0 - - - - - - -
04/01:00am 26.2 E 12 15 1016.1 - 0.0 - Partly cloudy - - - - -
04/12:30am 26.1 E 12 13 1016.2 - 0.0 - Partly cloudy - - - - -
04/12:00am 26.1 E 9 13 1016.1 - 0.0 - Partly cloudy - - - - -
 
Date/Time
WST
Temp

°C
Wind Pressure Rain
since 9am
mm
Weather Cloud Vis
km
Sea
Height
m
Swell
Dir
 
Speed
knots
Gust
knots
hPa Trend Height
m
Period
s
Dir
03/11:30pm 26.0 E 10 13 1016.2 - 0.0 - - - - - - -
03/11:00pm 26.0 E 9 12 1016.2 - 0.0 - - - - - - -
03/10:30pm 26.1 E 10 13 1016.2 - 0.0 - Partly cloudy - - - - -
03/10:00pm 26.2 E 11 13 1016.0 - 0.0 - Partly cloudy - - - - -
03/09:30pm 26.2 E 12 15 1015.9 - 0.0 - Partly cloudy - - - - -
03/09:00pm 26.3 E 13 15 1015.5 - 0.0 - Partly cloudy - - - - -
03/08:30pm 26.2 E 11 14 1015.2 - 0.0 - Partly cloudy - - - - -
03/08:00pm 26.3 E 12 14 1014.8 - 0.0 - Mostly clear - - - - -
03/07:30pm 26.5 E 12 15 1014.4 - 0.0 - Partly cloudy - - - - -
03/07:00pm 26.6 E 13 16 1014.1 - 0.0 - - - - - - -
03/06:30pm 26.8 E 13 16 1013.9 - 0.0 - Partly cloudy - - - - -
03/06:00pm 27.2 ENE 12 14 1013.8 - 0.0 - - - - - - -
03/05:30pm 27.2 ENE 13 16 1013.5 - 0.0 - Partly cloudy - - - - -
03/05:00pm 27.6 ENE 13 16 1013.3 - 0.0 - Mostly cloudy - - - - -
03/04:30pm 27.5 ENE 14 17 1013.2 - 0.0 - Partly cloudy - - - - -
03/04:00pm 27.9 E 15 17 1013.2 - 0.0 - Partly cloudy - - - - -
03/03:30pm 27.8 ENE 15 18 1013.5 - 0.0 - Partly cloudy - - - - -
03/03:00pm 27.6 ENE 15 19 1013.6 - 0.0 - Partly cloudy - - - - -
03/02:30pm 28.0 ENE 15 19 1014.0 - 0.0 - Partly cloudy - - - - -
03/02:00pm 27.7 ENE 15 19 1014.3 - 0.0 - - - - - - -
03/01:30pm 27.2 ENE 16 18 1014.5 - 0.0 - - - - - - -
03/01:00pm 27.4 E 16 18 1014.9 - 0.0 - - - - - - -
03/12:30pm 27.4 E 16 19 1015.4 - 0.0 - Mostly clear 10 - - - -
03/12:00pm 26.9 E 16 20 1015.7 - 0.0 - Mostly clear 10 - - - -
03/11:30am 26.6 E 15 19 1015.9 - 0.0 - Mostly clear 10 - - - -
03/11:00am 26.5 E 15 17 1015.9 - 0.0 Fine Partly cloudy 15 - - - -
03/10:30am 26.3 E 15 18 1015.7 - 0.0 - Mostly clear 10 - - - -
03/10:00am 25.9 E 15 17 1015.5 - 0.0 - Mostly clear 10 - - - -
03/09:30am 25.9 E 15 17 1015.2 - 0.0 - - 10 - - - -
03/09:00am 25.7 E 15 18 1014.9 - 0.0 - - 10 - - - -
03/08:30am 25.3 E 14 17 1014.6 - 0.0 - - 10 - - - -
03/08:00am 25.1 E 14 17 1014.3 - 0.0 - - 10 - - - -
03/07:30am 25.0 E 14 17 1014.1 - 0.0 - - 10 - - - -
03/07:00am 25.0 E 14 16 1013.8 - 0.0 - - 10 - - - -
03/06:30am 24.9 E 14 17 1013.5 - 0.0 - Partly cloudy 10 - - - -
03/06:00am 24.7 E 11 13 1013.7 - 0.0 - - 10 - - - -
03/05:30am 24.9 E 13 16 1013.7 - 0.0 - - 10 - - - -
03/05:00am 24.7 E 11 15 1013.8 - 0.0 - - 10 - - - -
03/04:30am 25.0 E 13 17 1013.8 - 0.0 - - 10 - - - -
03/04:00am 25.4 E 15 18 1013.9 - 0.0 - Partly cloudy 10 - - - -
03/03:30am 25.4 E 14 16 1014.0 - 0.0 - Partly cloudy 10 - - - -
03/03:00am 25.5 E 13 16 1014.0 - 0.0 - - 10 - - - -
03/02:30am 25.5 E 15 17 1014.1 - 0.0 - - 10 - - - -
03/02:00am 25.8 E 15 18 1014.3 - 0.0 - - 10 - - - -
03/01:30am 25.8 E 14 17 1014.6 - 0.0 - - 10 - - - -
03/01:00am 25.8 E 15 18 1014.6 - 0.0 - - 10 - - - -
03/12:30am 25.9 E 15 19 1014.6 - 0.0 - - - - - - -
03/12:00am 26.0 E 15 19 1014.5 - 0.0 - - - - - - -
 
Date/Time
WST
Temp

°C
Wind Pressure Rain
since 9am
mm
Weather Cloud Vis
km
Sea
Height
m
Swell
Dir
 
Speed
knots
Gust
knots
hPa Trend Height
m
Period
s
Dir
02/11:30pm 25.9 E 14 18 1014.5 - 0.0 - - - - - - -
02/11:00pm 26.1 E 15 19 1014.4 - 0.0 - - - - - - -
02/10:30pm 26.1 E 14 19 1014.3 - 0.0 - Partly cloudy - - - - -
02/10:00pm 26.1 E 14 18 1014.3 - 0.0 - - - - - - -
02/09:30pm 26.2 E 16 19 1014.1 - 0.0 - Partly cloudy - - - - -
02/09:00pm 26.3 E 15 18 1013.9 - 0.0 - Partly cloudy - - - - -
02/08:30pm 26.3 E 16 19 1013.5 - 0.0 - - - - - - -
02/08:00pm 26.3 E 17 19 1013.0 - 0.0 - - - - - - -
02/07:30pm 26.4 E 16 19 1013.0 - 0.0 - Partly cloudy - - - - -
02/07:00pm 26.6 E 17 19 1012.8 - 0.0 - - - - - - -
02/06:30pm 26.6 E 17 21 1012.7 - 0.0 - Partly cloudy - - - - -
02/06:00pm 26.9 E 18 21 1012.4 - 0.0 - Mostly clear 10 - - - -
02/05:30pm 27.0 E 18 23 1012.3 - 0.0 - Mostly clear 10 - - - -
02/05:00pm 27.4 E 17 21 1012.2 - 0.0 Fine Mostly clear 20 - - - -
02/04:30pm 27.3 E 18 21 1012.2 - 0.0 - Mostly clear 10 - - - -
02/04:00pm 27.8 E 18 21 1012.3 - 0.0 - Mostly clear 10 - - - -
02/03:30pm 27.8 E 17 20 1012.6 - 0.0 - Mostly clear 10 - - - -
02/03:00pm 27.5 E 18 21 1012.9 - 0.0 - Mostly clear 10 - - - -
02/02:30pm 27.4 E 17 21 1013.2 - 0.0 - - - - - - -
02/02:00pm 27.6 E 18 22 1013.6 - 0.0 Fine Partly cloudy 15 - - - -
02/01:30pm 27.8 ENE 18 22 1013.9 - 0.0 - Mostly clear 10 - - - -

Other Formats:

Comma delimited format used in spreadsheet applications
http://www.bom.gov.au/fwo/IDW60701/IDW60701.96996.axf

JavaScript Object Notation format (JSON) in row-major order
http://www.bom.gov.au/fwo/IDW60701/IDW60701.96996.json